sensor_id;sensor_type;location;lat;lon;timestamp;temperature;humidity
8537;DHT22;4306;50.210;10.628;2024-03-25T00:00:21;5.00;99.90
8537;DHT22;4306;50.210;10.628;2024-03-25T00:02:51;4.90;99.90
8537;DHT22;4306;50.210;10.628;2024-03-25T00:05:17;4.90;99.90
8537;DHT22;4306;50.210;10.628;2024-03-25T00:07:48;4.90;99.90
8537;DHT22;4306;50.210;10.628;2024-03-25T00:10:15;4.90;99.90
8537;DHT22;4306;50.210;10.628;2024-03-25T00:12:42;4.90;99.90
8537;DHT22;4306;50.210;10.628;2024-03-25T00:15:08;4.90;99.90
8537;DHT22;4306;50.210;10.628;2024-03-25T00:17:36;4.90;99.90
8537;DHT22;4306;50.210;10.628;2024-03-25T00:20:04;4.90;99.90
8537;DHT22;4306;50.210;10.628;2024-03-25T00:22:34;4.80;99.90
8537;DHT22;4306;50.210;10.628;2024-03-25T00:25:00;4.80;99.90
8537;DHT22;4306;50.210;10.628;2024-03-25T00:27:27;4.80;99.90
8537;DHT22;4306;50.210;10.628;2024-03-25T00:29:55;4.80;99.90
8537;DHT22;4306;50.210;10.628;2024-03-25T00:32:22;4.80;99.90
8537;DHT22;4306;50.210;10.628;2024-03-25T00:34:48;4.80;99.90
8537;DHT22;4306;50.210;10.628;2024-03-25T00:37:17;4.80;99.90
8537;DHT22;4306;50.210;10.628;2024-03-25T00:39:43;4.80;99.90
8537;DHT22;4306;50.210;10.628;2024-03-25T00:42:11;4.80;99.90
8537;DHT22;4306;50.210;10.628;2024-03-25T00:44:37;4.80;99.90
8537;DHT22;4306;50.210;10.628;2024-03-25T00:47:04;4.70;99.90
8537;DHT22;4306;50.210;10.628;2024-03-25T00:49:31;4.70;99.90
8537;DHT22;4306;50.210;10.628;2024-03-25T00:51:58;4.70;99.90
8537;DHT22;4306;50.210;10.628;2024-03-25T00:54:25;4.70;99.90
8537;DHT22;4306;50.210;10.628;2024-03-25T00:56:53;4.70;99.90
8537;DHT22;4306;50.210;10.628;2024-03-25T00:59:19;4.70;99.90
8537;DHT22;4306;50.210;10.628;2024-03-25T01:01:46;4.70;99.90
8537;DHT22;4306;50.210;10.628;2024-03-25T01:04:12;4.70;99.90
8537;DHT22;4306;50.210;10.628;2024-03-25T01:06:39;4.80;99.90
8537;DHT22;4306;50.210;10.628;2024-03-25T01:09:05;4.80;99.90
8537;DHT22;4306;50.210;10.628;2024-03-25T01:11:34;4.80;99.90
8537;DHT22;4306;50.210;10.628;2024-03-25T01:14:00;4.80;99.90
8537;DHT22;4306;50.210;10.628;2024-03-25T01:16:27;4.70;99.90
8537;DHT22;4306;50.210;10.628;2024-03-25T01:18:53;4.70;99.90
8537;DHT22;4306;50.210;10.628;2024-03-25T01:21:21;4.80;99.90
8537;DHT22;4306;50.210;10.628;2024-03-25T01:23:47;4.80;99.90
8537;DHT22;4306;50.210;10.628;2024-03-25T01:26:14;4.80;99.90
8537;DHT22;4306;50.210;10.628;2024-03-25T01:28:42;4.80;99.90
8537;DHT22;4306;50.210;10.628;2024-03-25T01:31:08;4.80;99.90
8537;DHT22;4306;50.210;10.628;2024-03-25T01:33:35;4.80;99.90
8537;DHT22;4306;50.210;10.628;2024-03-25T01:36:02;4.80;99.90
8537;DHT22;4306;50.210;10.628;2024-03-25T01:38:30;4.80;99.90
8537;DHT22;4306;50.210;10.628;2024-03-25T01:40:59;4.80;99.90
8537;DHT22;4306;50.210;10.628;2024-03-25T01:43:33;4.80;99.90
8537;DHT22;4306;50.210;10.628;2024-03-25T01:46:01;4.70;99.90
8537;DHT22;4306;50.210;10.628;2024-03-25T01:48:28;4.70;99.90
8537;DHT22;4306;50.210;10.628;2024-03-25T01:50:55;4.80;99.90
8537;DHT22;4306;50.210;10.628;2024-03-25T01:53:23;4.70;99.90
8537;DHT22;4306;50.210;10.628;2024-03-25T01:55:52;4.70;99.90
8537;DHT22;4306;50.210;10.628;2024-03-25T01:58:21;4.60;99.90
8537;DHT22;4306;50.210;10.628;2024-03-25T02:00:49;4.60;99.90
8537;DHT22;4306;50.210;10.628;2024-03-25T02:03:18;4.60;99.90
8537;DHT22;4306;50.210;10.628;2024-03-25T02:05:44;4.70;99.90
8537;DHT22;4306;50.210;10.628;2024-03-25T02:08:11;4.60;99.90
8537;DHT22;4306;50.210;10.628;2024-03-25T02:10:38;4.70;99.90
8537;DHT22;4306;50.210;10.628;2024-03-25T02:13:05;4.70;99.90
8537;DHT22;4306;50.210;10.628;2024-03-25T02:15:32;4.60;99.90
8537;DHT22;4306;50.210;10.628;2024-03-25T02:18:00;4.60;99.90
8537;DHT22;4306;50.210;10.628;2024-03-25T02:20:27;4.70;99.90
8537;DHT22;4306;50.210;10.628;2024-03-25T02:22:55;4.60;99.90
8537;DHT22;4306;50.210;10.628;2024-03-25T02:25:21;4.60;99.90
8537;DHT22;4306;50.210;10.628;2024-03-25T02:27:50;4.60;99.90
8537;DHT22;4306;50.210;10.628;2024-03-25T02:30:16;4.50;99.90
8537;DHT22;4306;50.210;10.628;2024-03-25T02:32:43;4.50;99.90
8537;DHT22;4306;50.210;10.628;2024-03-25T02:35:12;4.60;99.90
8537;DHT22;4306;50.210;10.628;2024-03-25T02:37:41;4.50;99.90
8537;DHT22;4306;50.210;10.628;2024-03-25T02:40:08;4.50;99.90
8537;DHT22;4306;50.210;10.628;2024-03-25T02:42:37;4.50;99.90
8537;DHT22;4306;50.210;10.628;2024-03-25T02:45:07;4.50;99.90
8537;DHT22;4306;50.210;10.628;2024-03-25T02:47:35;4.50;99.90
8537;DHT22;4306;50.210;10.628;2024-03-25T02:50:01;4.70;99.90
8537;DHT22;4306;50.210;10.628;2024-03-25T02:52:28;4.50;99.90
8537;DHT22;4306;50.210;10.628;2024-03-25T02:54:55;4.50;99.90
8537;DHT22;4306;50.210;10.628;2024-03-25T02:57:21;4.50;99.90
8537;DHT22;4306;50.210;10.628;2024-03-25T02:59:48;4.50;99.90
8537;DHT22;4306;50.210;10.628;2024-03-25T03:02:16;4.40;99.90
8537;DHT22;4306;50.210;10.628;2024-03-25T03:04:43;4.50;99.90
8537;DHT22;4306;50.210;10.628;2024-03-25T03:07:09;4.50;99.90
8537;DHT22;4306;50.210;10.628;2024-03-25T03:09:36;4.50;99.90
8537;DHT22;4306;50.210;10.628;2024-03-25T03:12:03;4.40;99.90
8537;DHT22;4306;50.210;10.628;2024-03-25T03:14:31;4.50;99.90
8537;DHT22;4306;50.210;10.628;2024-03-25T03:16:57;4.40;99.90
8537;DHT22;4306;50.210;10.628;2024-03-25T03:19:26;4.40;99.90
8537;DHT22;4306;50.210;10.628;2024-03-25T03:21:52;4.50;99.90
8537;DHT22;4306;50.210;10.628;2024-03-25T03:24:20;4.50;99.90
8537;DHT22;4306;50.210;10.628;2024-03-25T03:26:46;4.50;99.90
8537;DHT22;4306;50.210;10.628;2024-03-25T03:29:13;4.50;99.90
8537;DHT22;4306;50.210;10.628;2024-03-25T03:31:39;4.50;99.90
8537;DHT22;4306;50.210;10.628;2024-03-25T03:34:06;4.50;99.90
8537;DHT22;4306;50.210;10.628;2024-03-25T03:36:33;4.40;99.90
8537;DHT22;4306;50.210;10.628;2024-03-25T03:39:00;4.40;99.90
8537;DHT22;4306;50.210;10.628;2024-03-25T03:41:26;4.30;99.90
8537;DHT22;4306;50.210;10.628;2024-03-25T03:43:53;4.40;99.90
8537;DHT22;4306;50.210;10.628;2024-03-25T03:46:19;4.40;99.90
8537;DHT22;4306;50.210;10.628;2024-03-25T03:48:46;4.40;99.90
8537;DHT22;4306;50.210;10.628;2024-03-25T03:51:12;4.30;99.90
8537;DHT22;4306;50.210;10.628;2024-03-25T03:53:41;4.30;99.90
8537;DHT22;4306;50.210;10.628;2024-03-25T03:56:07;4.40;99.90
8537;DHT22;4306;50.210;10.628;2024-03-25T03:58:34;4.30;99.90
8537;DHT22;4306;50.210;10.628;2024-03-25T04:01:01;4.30;99.90
8537;DHT22;4306;50.210;10.628;2024-03-25T04:03:29;4.30;99.90
8537;DHT22;4306;50.210;10.628;2024-03-25T04:05:55;4.30;99.90
8537;DHT22;4306;50.210;10.628;2024-03-25T04:08:23;4.20;99.90
8537;DHT22;4306;50.210;10.628;2024-03-25T04:10:50;4.20;99.90
8537;DHT22;4306;50.210;10.628;2024-03-25T04:13:17;4.10;99.90
8537;DHT22;4306;50.210;10.628;2024-03-25T04:15:43;4.00;99.90
8537;DHT22;4306;50.210;10.628;2024-03-25T04:18:10;4.00;99.90
8537;DHT22;4306;50.210;10.628;2024-03-25T04:20:37;4.00;99.90
8537;DHT22;4306;50.210;10.628;2024-03-25T04:23:05;4.10;99.90
8537;DHT22;4306;50.210;10.628;2024-03-25T04:25:33;4.10;99.90
8537;DHT22;4306;50.210;10.628;2024-03-25T04:28:02;4.10;99.90
8537;DHT22;4306;50.210;10.628;2024-03-25T04:30:28;4.10;99.90
8537;DHT22;4306;50.210;10.628;2024-03-25T04:32:55;4.10;99.90
8537;DHT22;4306;50.210;10.628;2024-03-25T04:35:21;4.20;99.90
8537;DHT22;4306;50.210;10.628;2024-03-25T04:37:48;4.10;99.90
8537;DHT22;4306;50.210;10.628;2024-03-25T04:40:14;4.10;99.90
8537;DHT22;4306;50.210;10.628;2024-03-25T04:42:41;4.00;99.90
8537;DHT22;4306;50.210;10.628;2024-03-25T04:45:09;4.10;99.90
8537;DHT22;4306;50.210;10.628;2024-03-25T04:47:35;4.10;99.90
8537;DHT22;4306;50.210;10.628;2024-03-25T04:50:01;4.20;99.90
8537;DHT22;4306;50.210;10.628;2024-03-25T04:52:28;4.20;99.90
8537;DHT22;4306;50.210;10.628;2024-03-25T04:54:54;4.20;99.90
8537;DHT22;4306;50.210;10.628;2024-03-25T04:57:20;4.20;99.90
8537;DHT22;4306;50.210;10.628;2024-03-25T04:59:46;4.20;99.90
8537;DHT22;4306;50.210;10.628;2024-03-25T05:02:14;4.10;99.90
8537;DHT22;4306;50.210;10.628;2024-03-25T05:04:40;4.10;99.90
8537;DHT22;4306;50.210;10.628;2024-03-25T05:07:06;4.10;99.90
8537;DHT22;4306;50.210;10.628;2024-03-25T05:09:32;4.10;99.90
8537;DHT22;4306;50.210;10.628;2024-03-25T05:11:58;4.10;99.90
8537;DHT22;4306;50.210;10.628;2024-03-25T05:14:24;4.10;99.90
8537;DHT22;4306;50.210;10.628;2024-03-25T05:16:50;4.10;99.90
8537;DHT22;4306;50.210;10.628;2024-03-25T05:19:18;4.10;99.90
8537;DHT22;4306;50.210;10.628;2024-03-25T05:21:44;4.20;99.90
8537;DHT22;4306;50.210;10.628;2024-03-25T05:24:11;4.20;99.90
8537;DHT22;4306;50.210;10.628;2024-03-25T05:26:37;4.20;99.90
8537;DHT22;4306;50.210;10.628;2024-03-25T05:29:03;4.20;99.90
8537;DHT22;4306;50.210;10.628;2024-03-25T05:31:29;4.20;99.90
8537;DHT22;4306;50.210;10.628;2024-03-25T05:33:56;4.20;99.90
8537;DHT22;4306;50.210;10.628;2024-03-25T05:36:23;4.20;99.90
8537;DHT22;4306;50.210;10.628;2024-03-25T05:38:49;4.20;99.90
8537;DHT22;4306;50.210;10.628;2024-03-25T05:41:15;4.20;99.90
8537;DHT22;4306;50.210;10.628;2024-03-25T05:43:41;4.20;99.90
8537;DHT22;4306;50.210;10.628;2024-03-25T05:46:07;4.30;99.90
8537;DHT22;4306;50.210;10.628;2024-03-25T05:48:33;4.20;99.90
8537;DHT22;4306;50.210;10.628;2024-03-25T05:51:00;4.20;99.90
8537;DHT22;4306;50.210;10.628;2024-03-25T05:53:28;4.30;99.90
8537;DHT22;4306;50.210;10.628;2024-03-25T05:55:55;4.30;99.90
8537;DHT22;4306;50.210;10.628;2024-03-25T05:58:21;4.30;99.90
8537;DHT22;4306;50.210;10.628;2024-03-25T06:00:48;4.30;99.90
8537;DHT22;4306;50.210;10.628;2024-03-25T06:03:14;4.30;99.90
8537;DHT22;4306;50.210;10.628;2024-03-25T06:05:40;4.40;99.90
8537;DHT22;4306;50.210;10.628;2024-03-25T06:08:07;4.40;99.90
8537;DHT22;4306;50.210;10.628;2024-03-25T06:10:38;4.40;99.90
8537;DHT22;4306;50.210;10.628;2024-03-25T06:13:04;4.50;99.90
8537;DHT22;4306;50.210;10.628;2024-03-25T06:15:30;4.50;99.90
8537;DHT22;4306;50.210;10.628;2024-03-25T06:17:56;4.50;99.90
8537;DHT22;4306;50.210;10.628;2024-03-25T06:20:22;4.50;99.90
8537;DHT22;4306;50.210;10.628;2024-03-25T06:22:48;4.50;99.90
8537;DHT22;4306;50.210;10.628;2024-03-25T06:25:15;4.50;99.90
8537;DHT22;4306;50.210;10.628;2024-03-25T06:27:42;4.60;99.90
8537;DHT22;4306;50.210;10.628;2024-03-25T06:30:09;4.60;99.90
8537;DHT22;4306;50.210;10.628;2024-03-25T06:32:55;4.70;99.90
8537;DHT22;4306;50.210;10.628;2024-03-25T06:35:39;4.80;99.90
8537;DHT22;4306;50.210;10.628;2024-03-25T06:38:07;4.80;99.90
8537;DHT22;4306;50.210;10.628;2024-03-25T06:40:33;4.90;99.90
8537;DHT22;4306;50.210;10.628;2024-03-25T06:43:01;4.90;99.90
8537;DHT22;4306;50.210;10.628;2024-03-25T06:45:27;5.00;99.90
8537;DHT22;4306;50.210;10.628;2024-03-25T06:47:53;4.90;99.90
8537;DHT22;4306;50.210;10.628;2024-03-25T06:50:19;5.00;99.90
8537;DHT22;4306;50.210;10.628;2024-03-25T06:52:45;5.00;99.90
8537;DHT22;4306;50.210;10.628;2024-03-25T06:55:12;5.10;99.90
8537;DHT22;4306;50.210;10.628;2024-03-25T06:57:38;5.10;99.90
8537;DHT22;4306;50.210;10.628;2024-03-25T07:00:07;5.10;99.90
8537;DHT22;4306;50.210;10.628;2024-03-25T07:02:34;5.10;99.90
8537;DHT22;4306;50.210;10.628;2024-03-25T07:05:00;5.20;99.90
8537;DHT22;4306;50.210;10.628;2024-03-25T07:07:26;5.30;99.90
8537;DHT22;4306;50.210;10.628;2024-03-25T07:09:52;5.20;99.90
8537;DHT22;4306;50.210;10.628;2024-03-25T07:12:18;5.30;99.90
8537;DHT22;4306;50.210;10.628;2024-03-25T07:14:44;5.30;99.90
8537;DHT22;4306;50.210;10.628;2024-03-25T07:17:12;5.30;99.90
8537;DHT22;4306;50.210;10.628;2024-03-25T07:19:38;5.30;99.90
8537;DHT22;4306;50.210;10.628;2024-03-25T07:22:04;5.30;99.90
8537;DHT22;4306;50.210;10.628;2024-03-25T07:24:30;5.30;99.90
8537;DHT22;4306;50.210;10.628;2024-03-25T07:26:56;5.20;99.90
8537;DHT22;4306;50.210;10.628;2024-03-25T07:29:22;5.20;99.90
8537;DHT22;4306;50.210;10.628;2024-03-25T07:31:49;5.10;99.90
8537;DHT22;4306;50.210;10.628;2024-03-25T07:34:16;5.20;99.90
8537;DHT22;4306;50.210;10.628;2024-03-25T07:36:42;5.40;99.90
8537;DHT22;4306;50.210;10.628;2024-03-25T07:39:08;5.30;99.90
8537;DHT22;4306;50.210;10.628;2024-03-25T07:41:35;5.30;99.90
8537;DHT22;4306;50.210;10.628;2024-03-25T07:44:01;5.40;99.90
8537;DHT22;4306;50.210;10.628;2024-03-25T07:46:27;5.40;99.90
8537;DHT22;4306;50.210;10.628;2024-03-25T07:48:53;5.40;99.90
8537;DHT22;4306;50.210;10.628;2024-03-25T07:51:20;5.40;99.90
8537;DHT22;4306;50.210;10.628;2024-03-25T07:53:46;5.60;99.90
8537;DHT22;4306;50.210;10.628;2024-03-25T07:56:13;5.50;99.90
8537;DHT22;4306;50.210;10.628;2024-03-25T07:58:40;5.60;99.90
8537;DHT22;4306;50.210;10.628;2024-03-25T08:01:06;5.70;99.90
8537;DHT22;4306;50.210;10.628;2024-03-25T08:03:32;5.80;99.90
8537;DHT22;4306;50.210;10.628;2024-03-25T08:05:59;5.60;99.90
8537;DHT22;4306;50.210;10.628;2024-03-25T08:08:26;5.50;99.90
8537;DHT22;4306;50.210;10.628;2024-03-25T08:10:52;5.50;99.90
8537;DHT22;4306;50.210;10.628;2024-03-25T08:13:19;5.30;99.90
8537;DHT22;4306;50.210;10.628;2024-03-25T08:15:45;5.40;99.90
8537;DHT22;4306;50.210;10.628;2024-03-25T08:18:12;5.30;99.90
8537;DHT22;4306;50.210;10.628;2024-03-25T08:20:38;5.10;99.90
8537;DHT22;4306;50.210;10.628;2024-03-25T08:23:04;5.00;99.90
8537;DHT22;4306;50.210;10.628;2024-03-25T08:25:32;5.00;99.90
8537;DHT22;4306;50.210;10.628;2024-03-25T08:27:58;5.00;99.90
8537;DHT22;4306;50.210;10.628;2024-03-25T08:30:24;5.00;99.90
8537;DHT22;4306;50.210;10.628;2024-03-25T08:32:50;4.90;99.90
8537;DHT22;4306;50.210;10.628;2024-03-25T08:35:16;4.90;99.90
8537;DHT22;4306;50.210;10.628;2024-03-25T08:37:43;4.90;99.90
8537;DHT22;4306;50.210;10.628;2024-03-25T08:40:09;4.80;99.90
8537;DHT22;4306;50.210;10.628;2024-03-25T08:42:37;4.80;99.90
8537;DHT22;4306;50.210;10.628;2024-03-25T08:45:04;4.80;99.90
8537;DHT22;4306;50.210;10.628;2024-03-25T08:47:31;4.70;99.90
8537;DHT22;4306;50.210;10.628;2024-03-25T08:49:57;4.50;99.90
8537;DHT22;4306;50.210;10.628;2024-03-25T08:52:23;4.60;99.90
8537;DHT22;4306;50.210;10.628;2024-03-25T08:54:49;4.40;99.90
8537;DHT22;4306;50.210;10.628;2024-03-25T08:57:15;4.50;99.90
8537;DHT22;4306;50.210;10.628;2024-03-25T08:59:42;4.80;99.90
8537;DHT22;4306;50.210;10.628;2024-03-25T09:02:08;5.00;99.90
8537;DHT22;4306;50.210;10.628;2024-03-25T09:04:34;5.10;99.90
8537;DHT22;4306;50.210;10.628;2024-03-25T09:07:00;5.20;99.90
8537;DHT22;4306;50.210;10.628;2024-03-25T09:09:26;5.30;99.90
8537;DHT22;4306;50.210;10.628;2024-03-25T09:12:11;5.40;99.90
8537;DHT22;4306;50.210;10.628;2024-03-25T09:14:37;5.60;99.90
8537;DHT22;4306;50.210;10.628;2024-03-25T09:17:05;5.70;99.90
8537;DHT22;4306;50.210;10.628;2024-03-25T09:19:31;5.70;99.90
8537;DHT22;4306;50.210;10.628;2024-03-25T09:21:57;5.80;99.90
8537;DHT22;4306;50.210;10.628;2024-03-25T09:24:23;5.90;99.90
8537;DHT22;4306;50.210;10.628;2024-03-25T09:26:49;6.10;99.90
8537;DHT22;4306;50.210;10.628;2024-03-25T09:29:16;6.30;99.90
8537;DHT22;4306;50.210;10.628;2024-03-25T09:31:42;6.40;99.90
8537;DHT22;4306;50.210;10.628;2024-03-25T09:34:09;6.50;99.90
8537;DHT22;4306;50.210;10.628;2024-03-25T09:36:35;6.60;99.90
8537;DHT22;4306;50.210;10.628;2024-03-25T09:39:01;6.60;99.90
8537;DHT22;4306;50.210;10.628;2024-03-25T09:41:28;6.80;99.90
8537;DHT22;4306;50.210;10.628;2024-03-25T09:43:56;6.90;99.90
8537;DHT22;4306;50.210;10.628;2024-03-25T09:46:23;7.10;99.90
8537;DHT22;4306;50.210;10.628;2024-03-25T09:48:51;7.40;99.90
8537;DHT22;4306;50.210;10.628;2024-03-25T09:51:20;7.70;99.90
8537;DHT22;4306;50.210;10.628;2024-03-25T09:53:47;7.80;99.90
8537;DHT22;4306;50.210;10.628;2024-03-25T09:56:13;7.80;99.90
8537;DHT22;4306;50.210;10.628;2024-03-25T09:58:39;7.70;99.90
8537;DHT22;4306;50.210;10.628;2024-03-25T10:01:06;7.40;99.90
8537;DHT22;4306;50.210;10.628;2024-03-25T10:03:32;7.00;99.90
8537;DHT22;4306;50.210;10.628;2024-03-25T10:05:58;6.60;99.90
8537;DHT22;4306;50.210;10.628;2024-03-25T10:08:26;6.60;99.90
8537;DHT22;4306;50.210;10.628;2024-03-25T10:10:53;6.30;99.90
8537;DHT22;4306;50.210;10.628;2024-03-25T10:13:20;5.70;99.90
8537;DHT22;4306;50.210;10.628;2024-03-25T10:15:47;5.60;99.90
8537;DHT22;4306;50.210;10.628;2024-03-25T10:18:13;5.60;99.90
8537;DHT22;4306;50.210;10.628;2024-03-25T10:20:47;5.30;99.90
8537;DHT22;4306;50.210;10.628;2024-03-25T10:23:14;5.60;99.90
8537;DHT22;4306;50.210;10.628;2024-03-25T10:25:41;5.70;99.90
8537;DHT22;4306;50.210;10.628;2024-03-25T10:28:08;5.80;99.90
8537;DHT22;4306;50.210;10.628;2024-03-25T10:30:34;6.20;99.90
8537;DHT22;4306;50.210;10.628;2024-03-25T10:33:03;6.40;99.90
8537;DHT22;4306;50.210;10.628;2024-03-25T10:35:31;6.50;99.90
8537;DHT22;4306;50.210;10.628;2024-03-25T10:37:59;6.80;99.90
8537;DHT22;4306;50.210;10.628;2024-03-25T10:40:28;7.20;99.90
8537;DHT22;4306;50.210;10.628;2024-03-25T10:43:00;7.50;99.90
8537;DHT22;4306;50.210;10.628;2024-03-25T10:45:29;7.50;99.10
8537;DHT22;4306;50.210;10.628;2024-03-25T10:47:57;7.60;99.40
8537;DHT22;4306;50.210;10.628;2024-03-25T10:50:29;7.80;99.00
8537;DHT22;4306;50.210;10.628;2024-03-25T10:52:57;8.00;99.30
8537;DHT22;4306;50.210;10.628;2024-03-25T10:55:24;7.90;97.20
8537;DHT22;4306;50.210;10.628;2024-03-25T10:57:52;8.00;97.40
8537;DHT22;4306;50.210;10.628;2024-03-25T11:00:22;7.90;96.80
8537;DHT22;4306;50.210;10.628;2024-03-25T11:02:49;8.00;97.40
8537;DHT22;4306;50.210;10.628;2024-03-25T11:05:16;8.20;97.70
8537;DHT22;4306;50.210;10.628;2024-03-25T11:07:43;8.20;97.50
8537;DHT22;4306;50.210;10.628;2024-03-25T11:10:11;8.10;96.60
8537;DHT22;4306;50.210;10.628;2024-03-25T11:12:39;8.20;96.80
8537;DHT22;4306;50.210;10.628;2024-03-25T11:15:07;8.20;96.70
8537;DHT22;4306;50.210;10.628;2024-03-25T11:17:35;8.20;96.90
8537;DHT22;4306;50.210;10.628;2024-03-25T11:20:13;8.30;96.70
8537;DHT22;4306;50.210;10.628;2024-03-25T11:22:48;8.60;96.20
8537;DHT22;4306;50.210;10.628;2024-03-25T11:25:14;8.60;95.40
8537;DHT22;4306;50.210;10.628;2024-03-25T11:27:43;8.70;96.00
8537;DHT22;4306;50.210;10.628;2024-03-25T11:30:10;8.80;95.30
8537;DHT22;4306;50.210;10.628;2024-03-25T11:32:51;8.80;94.50
8537;DHT22;4306;50.210;10.628;2024-03-25T11:35:18;8.80;95.00
8537;DHT22;4306;50.210;10.628;2024-03-25T11:37:44;8.70;94.30
8537;DHT22;4306;50.210;10.628;2024-03-25T11:40:12;8.70;93.30
8537;DHT22;4306;50.210;10.628;2024-03-25T11:42:39;8.70;93.50
8537;DHT22;4306;50.210;10.628;2024-03-25T11:45:06;8.70;93.40
8537;DHT22;4306;50.210;10.628;2024-03-25T11:47:33;8.70;92.80
8537;DHT22;4306;50.210;10.628;2024-03-25T11:50:07;8.80;92.80
8537;DHT22;4306;50.210;10.628;2024-03-25T11:52:34;9.00;92.70
8537;DHT22;4306;50.210;10.628;2024-03-25T11:55:00;9.10;92.30
8537;DHT22;4306;50.210;10.628;2024-03-25T11:57:28;9.10;91.30
8537;DHT22;4306;50.210;10.628;2024-03-25T11:59:54;9.20;91.20
8537;DHT22;4306;50.210;10.628;2024-03-25T12:02:21;9.10;91.30
8537;DHT22;4306;50.210;10.628;2024-03-25T12:04:47;9.00;91.30
8537;DHT22;4306;50.210;10.628;2024-03-25T12:07:15;8.80;91.50
8537;DHT22;4306;50.210;10.628;2024-03-25T12:09:41;8.80;92.40
8537;DHT22;4306;50.210;10.628;2024-03-25T12:12:27;8.90;92.00
8537;DHT22;4306;50.210;10.628;2024-03-25T12:14:54;8.90;91.40
8537;DHT22;4306;50.210;10.628;2024-03-25T12:17:21;8.90;91.40
8537;DHT22;4306;50.210;10.628;2024-03-25T12:19:58;8.90;91.90
8537;DHT22;4306;50.210;10.628;2024-03-25T12:22:27;8.80;91.40
8537;DHT22;4306;50.210;10.628;2024-03-25T12:24:53;8.90;91.90
8537;DHT22;4306;50.210;10.628;2024-03-25T12:27:23;8.90;91.40
8537;DHT22;4306;50.210;10.628;2024-03-25T12:29:57;9.20;92.00
8537;DHT22;4306;50.210;10.628;2024-03-25T12:32:31;9.00;91.50
8537;DHT22;4306;50.210;10.628;2024-03-25T12:35:01;8.90;91.80
8537;DHT22;4306;50.210;10.628;2024-03-25T12:37:30;8.80;86.60
8537;DHT22;4306;50.210;10.628;2024-03-25T12:39:57;8.50;89.60
8537;DHT22;4306;50.210;10.628;2024-03-25T12:42:24;8.60;90.40
8537;DHT22;4306;50.210;10.628;2024-03-25T12:44:50;8.60;88.40
8537;DHT22;4306;50.210;10.628;2024-03-25T12:47:16;8.50;89.20
8537;DHT22;4306;50.210;10.628;2024-03-25T12:49:42;8.60;90.90
8537;DHT22;4306;50.210;10.628;2024-03-25T12:52:09;8.60;88.50
8537;DHT22;4306;50.210;10.628;2024-03-25T12:54:36;8.30;87.80
8537;DHT22;4306;50.210;10.628;2024-03-25T12:57:02;8.50;90.40
8537;DHT22;4306;50.210;10.628;2024-03-25T12:59:29;8.80;91.10
8537;DHT22;4306;50.210;10.628;2024-03-25T13:01:55;8.90;88.70
8537;DHT22;4306;50.210;10.628;2024-03-25T13:04:21;8.90;87.90
8537;DHT22;4306;50.210;10.628;2024-03-25T13:06:48;9.00;88.60
8537;DHT22;4306;50.210;10.628;2024-03-25T13:09:14;9.10;88.90
8537;DHT22;4306;50.210;10.628;2024-03-25T13:11:41;9.10;86.50
8537;DHT22;4306;50.210;10.628;2024-03-25T13:14:07;9.00;84.50
8537;DHT22;4306;50.210;10.628;2024-03-25T13:16:36;9.00;82.80
8537;DHT22;4306;50.210;10.628;2024-03-25T13:19:02;8.90;82.40
8537;DHT22;4306;50.210;10.628;2024-03-25T13:21:28;9.10;86.90
8537;DHT22;4306;50.210;10.628;2024-03-25T13:23:55;9.50;86.80
8537;DHT22;4306;50.210;10.628;2024-03-25T13:26:21;9.50;83.30
8537;DHT22;4306;50.210;10.628;2024-03-25T13:28:49;9.60;83.60
8537;DHT22;4306;50.210;10.628;2024-03-25T13:31:15;9.80;85.40
8537;DHT22;4306;50.210;10.628;2024-03-25T13:33:41;10.00;83.10
8537;DHT22;4306;50.210;10.628;2024-03-25T13:36:08;10.10;81.80
8537;DHT22;4306;50.210;10.628;2024-03-25T13:38:34;10.10;77.90
8537;DHT22;4306;50.210;10.628;2024-03-25T13:41:01;9.80;78.40
8537;DHT22;4306;50.210;10.628;2024-03-25T13:43:28;10.00;80.50
8537;DHT22;4306;50.210;10.628;2024-03-25T13:45:55;10.20;78.80
8537;DHT22;4306;50.210;10.628;2024-03-25T13:48:21;10.20;80.90
8537;DHT22;4306;50.210;10.628;2024-03-25T13:50:48;10.10;77.00
8537;DHT22;4306;50.210;10.628;2024-03-25T13:53:14;10.20;78.80
8537;DHT22;4306;50.210;10.628;2024-03-25T13:55:40;10.30;77.80
8537;DHT22;4306;50.210;10.628;2024-03-25T13:58:07;10.40;79.70
8537;DHT22;4306;50.210;10.628;2024-03-25T14:00:33;10.50;78.00
8537;DHT22;4306;50.210;10.628;2024-03-25T14:03:01;10.50;78.80
8537;DHT22;4306;50.210;10.628;2024-03-25T14:05:27;10.40;76.70
8537;DHT22;4306;50.210;10.628;2024-03-25T14:07:53;10.60;79.30
8537;DHT22;4306;50.210;10.628;2024-03-25T14:10:19;10.70;77.10
8537;DHT22;4306;50.210;10.628;2024-03-25T14:12:45;10.70;78.30
8537;DHT22;4306;50.210;10.628;2024-03-25T14:15:11;10.60;76.90
8537;DHT22;4306;50.210;10.628;2024-03-25T14:17:37;10.60;72.20
8537;DHT22;4306;50.210;10.628;2024-03-25T14:20:06;10.00;73.60
8537;DHT22;4306;50.210;10.628;2024-03-25T14:22:33;10.00;73.80
8537;DHT22;4306;50.210;10.628;2024-03-25T14:24:59;10.10;76.00
8537;DHT22;4306;50.210;10.628;2024-03-25T14:27:26;10.20;72.40
8537;DHT22;4306;50.210;10.628;2024-03-25T14:29:52;10.00;74.40
8537;DHT22;4306;50.210;10.628;2024-03-25T14:32:19;9.70;72.00
8537;DHT22;4306;50.210;10.628;2024-03-25T14:34:46;9.60;74.60
8537;DHT22;4306;50.210;10.628;2024-03-25T14:37:14;9.90;75.20
8537;DHT22;4306;50.210;10.628;2024-03-25T14:39:40;10.00;75.10
8537;DHT22;4306;50.210;10.628;2024-03-25T14:42:08;10.30;73.80
8537;DHT22;4306;50.210;10.628;2024-03-25T14:44:35;10.00;71.80
8537;DHT22;4306;50.210;10.628;2024-03-25T14:47:01;10.10;74.00
8537;DHT22;4306;50.210;10.628;2024-03-25T14:49:28;10.50;74.30
8537;DHT22;4306;50.210;10.628;2024-03-25T14:51:54;10.70;74.50
8537;DHT22;4306;50.210;10.628;2024-03-25T14:54:22;10.90;73.20
8537;DHT22;4306;50.210;10.628;2024-03-25T14:56:48;10.90;73.40
8537;DHT22;4306;50.210;10.628;2024-03-25T14:59:14;10.60;69.20
8537;DHT22;4306;50.210;10.628;2024-03-25T15:01:41;10.20;71.00
8537;DHT22;4306;50.210;10.628;2024-03-25T15:04:07;10.10;70.60
8537;DHT22;4306;50.210;10.628;2024-03-25T15:06:33;10.10;71.70
8537;DHT22;4306;50.210;10.628;2024-03-25T15:09:00;10.00;70.70
8537;DHT22;4306;50.210;10.628;2024-03-25T15:11:27;9.80;71.80
8537;DHT22;4306;50.210;10.628;2024-03-25T15:13:54;9.70;72.70
8537;DHT22;4306;50.210;10.628;2024-03-25T15:16:20;9.90;74.50
8537;DHT22;4306;50.210;10.628;2024-03-25T15:18:46;9.80;73.30
8537;DHT22;4306;50.210;10.628;2024-03-25T15:21:12;10.10;74.20
8537;DHT22;4306;50.210;10.628;2024-03-25T15:23:39;10.30;74.70
8537;DHT22;4306;50.210;10.628;2024-03-25T15:26:05;10.40;75.00
8537;DHT22;4306;50.210;10.628;2024-03-25T15:28:32;10.40;73.90
8537;DHT22;4306;50.210;10.628;2024-03-25T15:30:58;10.30;73.30
8537;DHT22;4306;50.210;10.628;2024-03-25T15:33:25;10.10;71.70
8537;DHT22;4306;50.210;10.628;2024-03-25T15:35:51;9.90;72.70
8537;DHT22;4306;50.210;10.628;2024-03-25T15:38:17;9.70;73.90
8537;DHT22;4306;50.210;10.628;2024-03-25T15:40:43;9.70;72.90
8537;DHT22;4306;50.210;10.628;2024-03-25T15:43:10;9.70;73.00
8537;DHT22;4306;50.210;10.628;2024-03-25T15:45:37;9.60;73.50
8537;DHT22;4306;50.210;10.628;2024-03-25T15:48:04;9.70;76.20
8537;DHT22;4306;50.210;10.628;2024-03-25T15:50:30;9.80;74.80
8537;DHT22;4306;50.210;10.628;2024-03-25T15:52:57;9.70;73.50
8537;DHT22;4306;50.210;10.628;2024-03-25T15:55:23;9.60;73.50
8537;DHT22;4306;50.210;10.628;2024-03-25T15:57:49;9.50;72.20